Time;durP1;ratioP1;P1;durP2;ratioP2;P2;SDS_P1;SDS_P2;PMS_P1;PMS_P2;Temp;Humidity;BMP_temperature;BMP_pressure;BME280_temperature;BME280_humidity;BME280_pressure;Samples;Min_cycle;Max_cycle;Signal;HPM_P1;HPM_P2
2021/12/19 00:00:02;;;;;;;14.17;9.50;;;;;;;3.97;62.77;100255.00;4995473;28;20038;-77
2021/12/19 00:10:24;;;;;;;12.00;9.33;;;;;;;3.99;62.64;100250.47;4995855;28;20058;-77
2021/12/19 00:12:51;;;;;;;11.77;7.63;;;;;;;3.78;62.40;100209.38;4994172;28;20026;-77
2021/12/19 00:15:17;;;;;;;9.20;7.33;;;;;;;4.08;62.56;100268.88;4995391;28;20088;-77
2021/12/19 00:17:43;;;;;;;9.90;7.40;;;;;;;3.97;62.27;100250.59;4995573;28;20027;-77
2021/12/19 00:20:08;;;;;;;9.50;7.50;;;;;;;3.51;62.36;100167.91;4995553;28;20030;-76
2021/12/19 00:22:34;;;;;;;9.43;8.17;;;;;;;3.72;62.26;100196.81;4995245;28;20030;-77
2021/12/19 00:24:59;;;;;;;9.50;8.20;;;;;;;3.62;62.17;100187.97;4994885;28;20030;-77
2021/12/19 00:27:25;;;;;;;9.10;7.17;;;;;;;3.44;62.18;100156.28;4994893;28;20022;-77
2021/12/19 00:29:50;;;;;;;7.77;6.57;;;;;;;3.68;61.85;100194.50;4995015;28;20081;-77
2021/12/19 00:32:16;;;;;;;10.47;7.43;;;;;;;4.05;62.28;100274.34;4994999;28;20027;-77
2021/12/19 00:34:41;;;;;;;9.13;7.47;;;;;;;3.87;62.40;100218.28;4995426;28;20026;-77
2021/12/19 00:37:07;;;;;;;9.30;7.50;;;;;;;4.10;62.13;100269.59;4995117;28;20431;-77
2021/12/19 00:39:32;;;;;;;8.73;7.20;;;;;;;3.81;61.92;100216.97;4995268;28;20476;-77
2021/12/19 00:41:57;;;;;;;9.37;6.87;;;;;;;4.09;62.15;100251.41;4995430;28;20034;-77
2021/12/19 00:44:24;;;;;;;8.97;8.03;;;;;;;3.42;62.19;100158.19;4995043;28;20080;-77
2021/12/19 00:46:52;;;;;;;10.67;8.33;;;;;;;3.64;62.30;100172.19;4994595;28;20030;-77
2021/12/19 00:49:20;;;;;;;10.47;8.80;;;;;;;3.87;62.22;100201.78;4994548;28;20500;-77
2021/12/19 00:51:46;;;;;;;14.40;10.63;;;;;;;3.50;62.38;100145.38;5008577;28;20119;-77
2021/12/19 00:54:12;;;;;;;12.33;9.40;;;;;;;4.10;62.27;100233.00;4995054;28;20495;-77
2021/12/19 00:56:44;;;;;;;10.40;9.27;;;;;;;4.02;62.30;100224.09;4995172;28;20557;-77
2021/12/19 00:59:10;;;;;;;11.40;9.80;;;;;;;3.70;62.36;100177.78;4994743;28;20095;-77
2021/12/19 01:01:37;;;;;;;11.37;9.77;;;;;;;4.03;62.37;100225.78;4994753;28;20547;-77
2021/12/19 01:04:09;;;;;;;11.30;9.00;;;;;;;3.51;62.21;100151.44;4994953;28;20026;-77
2021/12/19 01:06:34;;;;;;;8.70;7.80;;;;;;;3.78;62.27;100182.44;4995136;28;20022;-77
2021/12/19 01:09:00;;;;;;;11.17;9.17;;;;;;;3.53;61.94;100149.53;4995050;28;20508;-77
2021/12/19 01:11:25;;;;;;;8.63;7.27;;;;;;;4.13;62.07;100227.53;4994235;28;20026;-76
2021/12/19 01:13:51;;;;;;;10.83;8.17;;;;;;;3.99;61.81;100200.84;4992861;28;20038;-77
2021/12/19 01:16:16;;;;;;;10.23;8.27;;;;;;;3.78;62.00;100183.28;4994449;28;20053;-77
2021/12/19 01:18:42;;;;;;;9.83;7.43;;;;;;;4.14;61.41;100223.97;4994269;28;20026;-77
2021/12/19 01:21:08;;;;;;;11.30;8.40;;;;;;;3.61;61.71;100113.22;4994636;28;20500;-77
2021/12/19 01:23:33;;;;;;;10.20;7.47;;;;;;;4.09;61.59;100188.72;4994899;28;20038;-77
2021/12/19 01:25:59;;;;;;;10.33;7.60;;;;;;;3.60;61.76;100116.78;4994349;28;20038;-77
2021/12/19 01:28:24;;;;;;;9.57;8.17;;;;;;;3.66;61.51;100105.84;4994512;28;20038;-77
2021/12/19 01:30:50;;;;;;;10.77;8.50;;;;;;;4.02;61.48;100170.06;4994193;28;20085;-77
2021/12/19 01:33:16;;;;;;;12.47;8.97;;;;;;;4.18;61.28;100189.75;4994090;28;20064;-77
2021/12/19 01:35:41;;;;;;;10.50;8.00;;;;;;;3.83;60.94;100130.66;4993738;28;20057;-77
2021/12/19 01:38:07;;;;;;;11.13;7.97;;;;;;;4.18;60.85;100189.75;4992622;28;20033;-77
2021/12/19 01:40:32;;;;;;;9.87;7.43;;;;;;;3.56;60.77;100081.41;5008717;28;20038;-77
2021/12/19 01:42:58;;;;;;;9.70;7.07;;;;;;;3.86;60.92;100142.66;4993922;28;20030;-77
2021/12/19 01:45:30;;;;;;;8.80;6.53;;;;;;;4.04;60.92;100165.56;4993731;28;20423;-76
2021/12/19 01:47:57;;;;;;;9.80;8.00;;;;;;;3.43;60.80;100065.88;4993657;28;20077;-77
2021/12/19 01:50:23;;;;;;;10.70;8.07;;;;;;;4.09;60.86;100180.88;4993515;28;20053;-77
2021/12/19 01:52:49;;;;;;;9.07;7.80;;;;;;;4.09;60.64;100166.03;4993833;28;20053;-77
2021/12/19 01:55:15;;;;;;;9.27;7.63;;;;;;;3.98;60.80;100141.69;4993727;28;20022;-77
2021/12/19 01:57:41;;;;;;;8.77;6.50;;;;;;;3.70;60.82;100096.00;4993535;28;20026;-77
2021/12/19 02:00:16;;;;;;;8.47;6.07;;;;;;;3.45;60.77;100056.16;4993495;28;20038;-77
2021/12/19 02:02:41;;;;;;;7.00;5.73;;;;;;;3.69;61.00;100102.16;4993060;28;20103;-77
2021/12/19 02:05:07;;;;;;;7.33;5.73;;;;;;;3.67;60.54;100098.84;4993877;28;20113;-77
2021/12/19 02:07:32;;;;;;;8.50;6.03;;;;;;;3.98;61.04;100139.06;4993698;28;20116;-76
2021/12/19 02:09:58;;;;;;;8.00;6.73;;;;;;;3.99;61.00;100140.75;4993716;28;20033;-77
2021/12/19 02:12:23;;;;;;;6.87;5.90;;;;;;;3.38;60.85;100057.56;4993589;28;20026;-77
2021/12/19 02:14:49;;;;;;;11.33;7.87;;;;;;;3.77;60.85;100110.25;4992055;28;20032;-77
2021/12/19 02:17:14;;;;;;;20.50;14.00;;;;;;;3.97;61.11;100140.03;4993271;28;20484;-77
2021/12/19 02:19:40;;;;;;;11.93;8.93;;;;;;;3.38;61.23;100067.19;4993529;28;20066;-77
2021/12/19 02:22:05;;;;;;;14.57;10.13;;;;;;;3.77;61.30;100105.88;4992904;28;20079;-76
2021/12/19 02:24:33;;;;;;;12.70;9.70;;;;;;;3.53;61.41;100070.38;4992823;28;20479;-77
2021/12/19 02:26:58;;;;;;;14.17;10.00;;;;;;;3.77;61.10;100108.47;4992576;28;20021;-77
2021/12/19 02:29:23;;;;;;;14.77;11.40;;;;;;;3.87;61.55;100121.66;4993015;28;20458;-77
2021/12/19 02:31:49;;;;;;;16.83;12.07;;;;;;;3.73;61.50;100096.63;4992983;28;20034;-77
2021/12/19 02:34:25;;;;;;;16.00;12.20;;;;;;;3.43;61.71;100049.38;4993032;28;20030;-77
2021/12/19 02:49:59;;;;;;;11.93;8.87;;;;;;;3.44;62.07;100062.31;4992571;28;20040;-76
2021/12/19 02:52:25;;;;;;;13.37;9.90;;;;;;;3.62;62.29;100099.22;4992665;28;20030;-77
2021/12/19 02:54:50;;;;;;;12.27;9.47;;;;;;;3.21;62.13;100031.13;4993101;28;20418;-77
2021/12/19 02:57:16;;;;;;;10.97;9.57;;;;;;;3.51;62.23;100094.81;4992745;28;20396;-77
2021/12/19 02:59:41;;;;;;;12.57;9.53;;;;;;;3.47;62.22;100074.31;4992550;28;20488;-77
2021/12/19 03:02:07;;;;;;;12.00;9.63;;;;;;;3.04;62.26;100006.34;5007770;28;20474;-77
2021/12/19 03:04:32;;;;;;;13.27;9.30;;;;;;;3.00;62.33;100010.97;4992453;28;20033;-77
2021/12/19 03:06:58;;;;;;;13.00;10.17;;;;;;;3.61;62.68;100102.78;4992318;28;20431;-78
2021/12/19 03:12:20;;;;;;;15.43;11.83;;;;;;;3.21;62.90;100068.50;4992807;28;20037;-77
2021/12/19 03:20:14;;;;;;;16.87;12.53;;;;;;;3.11;63.09;100052.72;4992355;28;20118;-77
2021/12/19 03:22:39;;;;;;;14.90;12.77;;;;;;;3.10;63.16;100045.00;4992591;28;20109;-77
2021/12/19 03:25:05;;;;;;;19.37;13.37;;;;;;;3.27;63.38;100073.25;4992547;28;20101;-77
2021/12/19 03:27:30;;;;;;;18.63;14.50;;;;;;;2.62;63.12;99969.56;4992707;28;20045;-77
2021/12/19 03:29:56;;;;;;;20.13;15.03;;;;;;;3.43;63.17;100084.16;4992501;28;20480;-77
2021/12/19 03:32:23;;;;;;;18.83;14.23;;;;;;;2.93;63.16;100014.97;4991986;28;20547;-76
2021/12/19 03:34:49;;;;;;;30.53;21.33;;;;;;;3.26;63.61;100065.53;4992259;28;20072;-77
2021/12/19 03:37:14;;;;;;;25.93;18.03;;;;;;;3.38;63.17;100093.28;4991934;28;20047;-77
2021/12/19 03:42:47;;;;;;;21.83;16.40;;;;;;;2.67;63.17;99972.66;4951428;28;20029;-77
2021/12/19 03:45:18;;;;;;;24.20;17.90;;;;;;;3.17;63.12;100047.03;4951330;28;20032;-77
2021/12/19 03:47:44;;;;;;;24.23;17.80;;;;;;;2.88;63.30;99991.84;4972596;28;20030;-77
2021/12/19 03:50:13;;;;;;;23.00;18.43;;;;;;;3.40;63.35;100084.38;4992334;28;20033;-77
2021/12/19 03:52:39;;;;;;;30.03;21.27;;;;;;;2.97;63.35;100029.44;4992179;28;20023;-77
2021/12/19 03:55:05;;;;;;;30.27;22.33;;;;;;;2.95;63.57;100005.25;4991869;28;20030;-77
2021/12/19 03:57:31;;;;;;;34.10;25.77;;;;;;;3.00;63.44;100013.59;4992140;28;20026;-77
2021/12/19 03:59:56;;;;;;;32.50;24.30;;;;;;;2.83;63.53;99983.56;4991916;28;20030;-77
2021/12/19 04:02:26;;;;;;;34.97;24.73;;;;;;;2.96;63.84;100001.69;4992145;28;20057;-77
2021/12/19 04:04:55;;;;;;;31.83;22.83;;;;;;;3.30;63.69;100056.50;4992148;28;20400;-77
2021/12/19 04:07:21;;;;;;;32.93;23.87;;;;;;;2.15;63.73;99887.97;4992629;28;20101;-77
2021/12/19 04:09:47;;;;;;;32.60;22.57;;;;;;;2.64;64.02;99966.84;4992186;28;20026;-76
2021/12/19 04:12:12;;;;;;;32.27;25.07;;;;;;;2.84;63.96;99994.81;4992547;28;20491;-77
2021/12/19 04:14:38;;;;;;;34.53;25.07;;;;;;;3.04;63.98;100014.19;4992323;28;20030;-76
2021/12/19 04:17:03;;;;;;;30.23;23.13;;;;;;;2.71;63.95;99981.91;4991872;28;20036;-77
2021/12/19 04:19:29;;;;;;;34.27;24.80;;;;;;;2.68;64.33;99979.53;4991858;28;20034;-76
2021/12/19 04:21:56;;;;;;;33.70;24.80;;;;;;;2.98;64.59;100025.09;4992323;28;20558;-77
2021/12/19 04:24:21;;;;;;;34.50;26.37;;;;;;;3.03;64.26;100031.59;4991953;28;20034;-77
2021/12/19 04:26:47;;;;;;;33.90;25.97;;;;;;;3.10;64.34;100051.06;4994990;28;20030;-77
2021/12/19 04:29:12;;;;;;;34.93;26.23;;;;;;;2.44;64.14;99943.13;4995831;28;20036;-77
2021/12/19 04:31:38;;;;;;;36.77;26.37;;;;;;;2.60;64.39;99974.06;4995917;28;20032;-77
2021/12/19 04:34:04;;;;;;;38.93;27.77;;;;;;;2.61;64.19;99962.69;4995724;28;20038;-77
2021/12/19 04:36:34;;;;;;;39.53;28.70;;;;;;;3.01;63.93;100030.06;4994201;28;20026;-77
2021/12/19 04:57:49;;;;;;;31.25;23.08;;;;;;;3.16;63.57;100016.66;4995168;28;20491;-77
2021/12/19 05:00:20;;;;;;;34.47;26.03;;;;;;;3.13;63.54;100010.84;4994830;28;20048;-77
2021/12/19 05:16:02;;;;;;;74.03;48.37;;;;;;;2.98;63.92;100001.63;4994501;28;20553;-76
2021/12/19 05:18:31;;;;;;;95.03;60.17;;;;;;;2.49;63.93;99932.34;4994453;28;20026;-77
2021/12/19 05:21:00;;;;;;;88.70;57.90;;;;;;;3.00;63.17;100002.31;4994549;28;20036;-77
2021/12/19 05:23:38;;;;;;;83.17;54.03;;;;;;;2.53;63.48;99921.56;4994947;28;20022;-77
2021/12/19 05:26:03;;;;;;;65.13;45.43;;;;;;;3.03;63.62;100002.91;4994480;28;20040;-77
2021/12/19 05:28:29;;;;;;;61.13;41.50;;;;;;;3.01;63.54;99991.78;4994183;28;20416;-77
2021/12/19 05:30:54;;;;;;;50.80;37.00;;;;;;;3.07;62.96;100000.91;4994162;28;20026;-77
2021/12/19 05:33:20;;;;;;;58.57;40.63;;;;;;;3.03;63.58;99974.22;4994563;28;20038;-77
2021/12/19 05:46:32;;;;;;;44.20;32.00;;;;;;;2.98;62.56;99983.34;4994045;28;20558;-77
2021/12/19 05:48:58;;;;;;;40.40;28.77;;;;;;;2.87;62.56;99948.47;4994034;28;20026;-77
2021/12/19 05:51:23;;;;;;;37.93;27.43;;;;;;;2.47;62.51;99882.94;4993474;28;20089;-77
2021/12/19 05:53:48;;;;;;;35.43;24.90;;;;;;;3.10;62.68;99985.00;4993520;28;20026;-77
2021/12/19 05:56:14;;;;;;;33.43;23.83;;;;;;;3.09;62.50;99984.19;4993875;28;20044;-77
2021/12/19 05:58:39;;;;;;;23.47;16.90;;;;;;;2.50;62.06;99885.31;4992504;28;20118;-76
2021/12/19 06:01:05;;;;;;;24.70;17.90;;;;;;;3.15;62.31;99983.69;4993642;28;20022;-77
2021/12/19 06:03:30;;;;;;;19.07;15.23;;;;;;;2.75;61.56;99918.13;4993484;28;20026;-77
2021/12/19 06:05:56;;;;;;;17.90;14.43;;;;;;;2.47;61.64;99880.34;4993451;28;20045;-77
2021/12/19 06:08:21;;;;;;;15.93;12.50;;;;;;;3.10;61.21;99974.56;4992483;28;20038;-77
2021/12/19 06:10:47;;;;;;;17.10;13.03;;;;;;;3.13;61.13;99974.34;4993509;28;20026;-76
2021/12/19 06:13:12;;;;;;;16.37;12.30;;;;;;;2.49;61.10;99885.44;4991987;28;20037;-77
2021/12/19 06:15:38;;;;;;;16.70;12.87;;;;;;;3.07;61.06;99967.81;4992990;28;20161;-77
2021/12/19 06:18:04;;;;;;;15.90;11.87;;;;;;;3.09;61.25;99965.91;4993073;28;20030;-77
2021/12/19 06:20:31;;;;;;;16.50;12.53;;;;;;;2.71;60.86;99901.06;4993376;28;20022;-77
2021/12/19 06:22:57;;;;;;;15.13;12.37;;;;;;;2.83;60.94;99914.94;4993480;28;20458;-77
2021/12/19 06:25:23;;;;;;;13.23;10.70;;;;;;;3.06;60.80;99936.63;4993355;28;20030;-77
2021/12/19 06:27:48;;;;;;;15.13;11.73;;;;;;;3.16;60.84;99953.22;4992122;28;20033;-77
2021/12/19 06:30:14;;;;;;;14.20;11.00;;;;;;;2.72;60.69;99871.44;4993384;28;20104;-77
2021/12/19 06:32:40;;;;;;;12.77;10.10;;;;;;;3.31;60.69;99959.84;4991884;28;20022;-77
2021/12/19 06:35:11;;;;;;;14.30;10.87;;;;;;;2.83;60.37;99883.63;4993660;28;20470;-76
2021/12/19 06:37:38;;;;;;;11.93;9.80;;;;;;;3.36;60.54;99965.53;5005280;28;20061;-77
2021/12/19 06:40:13;;;;;;;13.70;10.77;;;;;;;3.27;60.21;99941.94;5007446;28;20026;-77
2021/12/19 06:42:39;;;;;;;14.27;10.90;;;;;;;3.36;60.70;99949.03;5006168;28;20101;-77
2021/12/19 06:45:06;;;;;;;13.00;10.27;;;;;;;3.30;60.02;99934.69;5012418;28;20064;-77
2021/12/19 06:47:31;;;;;;;13.03;9.77;;;;;;;3.12;60.08;99929.16;5012268;28;20076;-77
2021/12/19 06:49:57;;;;;;;11.60;9.33;;;;;;;2.73;59.89;99854.03;5012624;28;20488;-77
2021/12/19 06:52:23;;;;;;;13.17;9.40;;;;;;;2.85;59.77;99886.97;5012354;28;20479;-77
2021/12/19 06:54:48;;;;;;;13.43;10.30;;;;;;;3.21;59.83;99940.63;5008090;28;20026;-77
2021/12/19 06:57:14;;;;;;;10.77;9.30;;;;;;;3.18;59.49;99928.66;5012726;28;20033;-77
2021/12/19 06:59:39;;;;;;;13.10;9.40;;;;;;;3.36;59.21;99951.63;5012692;28;20030;-77
2021/12/19 07:02:05;;;;;;;11.67;8.90;;;;;;;3.37;59.38;99950.69;5027177;28;20514;-76
2021/12/19 07:04:30;;;;;;;15.07;10.53;;;;;;;3.27;59.68;99921.06;5011404;28;20037;-77
2021/12/19 07:06:56;;;;;;;15.67;11.37;;;;;;;3.31;59.27;99922.47;5011935;28;20104;-77
2021/12/19 07:09:21;;;;;;;15.40;10.53;;;;;;;3.22;59.19;99904.94;5002911;28;20033;-77
2021/12/19 07:11:47;;;;;;;14.03;10.70;;;;;;;3.48;59.44;99945.44;5001203;28;20481;-78
2021/12/19 07:14:12;;;;;;;13.13;9.87;;;;;;;3.51;58.86;99937.34;5011899;28;20034;-77
2021/12/19 07:16:38;;;;;;;18.40;15.17;;;;;;;2.82;59.22;99822.84;5011094;28;20044;-77
2021/12/19 07:19:03;;;;;;;12.13;9.73;;;;;;;2.96;59.15;99860.84;5024548;28;20079;-78
2021/12/19 07:21:29;;;;;;;12.63;10.10;;;;;;;3.30;59.12;99898.16;5011209;28;20037;-77
2021/12/19 07:23:55;;;;;;;13.60;10.83;;;;;;;3.58;58.76;99935.09;5025043;28;20040;-77
2021/12/19 07:26:20;;;;;;;12.67;10.00;;;;;;;3.63;58.75;99925.09;4999790;28;20038;-76
2021/12/19 07:28:47;;;;;;;12.37;9.73;;;;;;;3.31;58.65;99889.38;4994453;28;20537;-77
2021/12/19 07:31:16;;;;;;;12.53;9.67;;;;;;;3.64;58.82;99938.03;4992089;28;20110;-78
2021/12/19 07:33:44;;;;;;;12.93;9.03;;;;;;;3.21;58.71;99861.53;4993932;28;20029;-81
2021/12/19 07:36:09;;;;;;;12.37;8.50;;;;;;;3.24;58.57;99854.28;5005371;28;20017;-82
2021/12/19 07:38:47;;;;;;;12.30;9.70;;;;;;;3.73;58.77;99929.47;5002360;28;20029;-82
2021/12/19 07:41:13;;;;;;;11.80;9.03;;;;;;;3.67;58.61;99926.50;5019525;28;20092;-82
2021/12/19 07:43:38;;;;;;;11.37;9.03;;;;;;;3.39;58.75;99860.88;5009029;28;20038;-83
2021/12/19 07:46:03;;;;;;;22.47;14.57;;;;;;;3.42;58.26;99889.34;5024820;28;20135;-82
2021/12/19 07:48:29;;;;;;;14.30;10.87;;;;;;;3.74;58.51;99928.53;4993202;28;20038;-82
2021/12/19 07:50:54;;;;;;;10.53;8.83;;;;;;;3.68;57.99;99922.94;4992206;28;20101;-82
2021/12/19 07:53:20;;;;;;;12.37;8.73;;;;;;;3.28;58.27;99836.59;5009548;28;20189;-82
2021/12/19 07:55:45;;;;;;;10.70;8.50;;;;;;;3.45;57.98;99868.22;5009846;28;20032;-81
2021/12/19 07:58:11;;;;;;;7.97;7.17;;;;;;;3.63;58.15;99893.78;5001348;28;20042;-82
2021/12/19 08:00:36;;;;;;;9.70;8.37;;;;;;;3.63;58.15;99881.53;5013373;28;20415;-82
2021/12/19 08:03:02;;;;;;;9.70;7.37;;;;;;;2.97;57.74;99786.88;5006462;28;20538;-81
2021/12/19 08:05:27;;;;;;;10.13;7.73;;;;;;;3.77;57.95;99881.25;4999284;28;20036;-80
2021/12/19 08:08:00;;;;;;;9.87;7.50;;;;;;;3.93;57.54;99906.13;4996492;28;20026;-81
2021/12/19 08:13:12;;;;;;;10.10;8.47;;;;;;;3.78;57.86;99862.03;5013150;28;20091;-82
2021/12/19 08:15:38;;;;;;;9.87;7.90;;;;;;;3.95;57.38;99884.13;5013460;28;20034;-81
2021/12/19 08:18:05;;;;;;;10.23;8.30;;;;;;;3.97;57.34;99902.28;5002050;28;20117;-82
2021/12/19 08:20:31;;;;;;;11.43;8.87;;;;;;;3.99;57.56;99876.88;5006474;28;20168;-81
2021/12/19 08:22:56;;;;;;;11.30;8.60;;;;;;;3.99;57.47;99869.88;4997925;28;20113;-82
2021/12/19 08:25:24;;;;;;;9.23;8.13;;;;;;;4.02;56.97;99874.00;4996098;28;20041;-81
2021/12/19 08:27:49;;;;;;;8.93;7.53;;;;;;;3.95;57.40;99868.47;4999493;28;20092;-82
2021/12/19 08:30:16;;;;;;;10.57;7.60;;;;;;;3.71;57.23;99813.03;5005258;28;20022;-81
2021/12/19 08:32:42;;;;;;;12.47;9.53;;;;;;;4.10;57.35;99884.66;5011320;28;20025;-82
2021/12/19 08:35:09;;;;;;;12.17;9.57;;;;;;;4.08;57.23;99865.66;5011923;28;20025;-81
2021/12/19 08:37:35;;;;;;;13.53;10.20;;;;;;;3.76;57.37;99818.72;5030105;28;20053;-81
2021/12/19 08:40:00;;;;;;;12.50;9.87;;;;;;;3.92;57.21;99855.66;5014183;28;20123;-82
2021/12/19 08:42:27;;;;;;;13.07;9.20;;;;;;;4.09;57.25;99869.91;5006937;28;20040;-82
2021/12/19 08:44:54;;;;;;;12.83;9.47;;;;;;;3.38;57.43;99746.16;5012718;28;20022;-82
2021/12/19 08:47:20;;;;;;;13.00;10.07;;;;;;;3.41;57.45;99748.53;5000445;28;20416;-82
2021/12/19 08:49:45;;;;;;;13.23;10.20;;;;;;;3.50;57.62;99761.63;5010946;28;20083;-82
2021/12/19 08:52:11;;;;;;;12.67;10.07;;;;;;;3.49;57.47;99764.38;5014852;28;20499;-82
2021/12/19 08:54:37;;;;;;;14.53;11.43;;;;;;;3.17;57.55;99691.38;5009833;28;20105;-82
2021/12/19 08:57:03;;;;;;;11.67;9.87;;;;;;;3.88;57.46;99799.41;5006832;28;20140;-82
2021/12/19 08:59:29;;;;;;;11.17;10.03;;;;;;;4.04;57.40;99812.00;5009558;28;20434;-81
2021/12/19 09:01:57;;;;;;;12.10;10.67;;;;;;;3.58;57.11;99753.16;5011016;28;20046;-81
2021/12/19 09:04:23;;;;;;;11.87;10.40;;;;;;;4.28;57.36;99838.66;5004735;28;20073;-82
2021/12/19 09:06:49;;;;;;;16.03;12.17;;;;;;;4.22;57.50;99818.28;5011429;28;20499;-82
2021/12/19 09:09:15;;;;;;;16.53;13.57;;;;;;;4.38;57.24;99829.06;5011491;28;20485;-81
2021/12/19 09:11:41;;;;;;;12.40;11.07;;;;;;;3.68;57.42;99714.06;5011739;28;20029;-81
2021/12/19 09:14:06;;;;;;;16.07;11.33;;;;;;;3.96;57.30;99754.34;5013754;28;20049;-82
2021/12/19 09:16:32;;;;;;;13.87;11.23;;;;;;;3.78;57.29;99728.00;5008137;28;20036;-82
2021/12/19 09:18:57;;;;;;;14.77;11.27;;;;;;;4.02;57.07;99738.16;5004357;28;20030;-81
2021/12/19 09:21:22;;;;;;;13.60;11.00;;;;;;;4.46;57.02;99805.75;5008820;28;20040;-81
2021/12/19 09:23:48;;;;;;;14.90;11.50;;;;;;;3.84;56.59;99704.00;4999034;28;20026;-80
2021/12/19 09:26:13;;;;;;;17.53;11.63;;;;;;;4.13;56.93;99741.50;5008072;28;20033;-82
2021/12/19 09:28:39;;;;;;;12.40;9.83;;;;;;;4.12;56.62;99721.56;5002624;28;20062;-81
2021/12/19 09:31:05;;;;;;;12.37;9.87;;;;;;;4.02;56.64;99693.75;5014448;28;20040;-82
2021/12/19 09:33:31;;;;;;;14.37;10.10;;;;;;;4.55;56.59;99762.28;5009576;28;20029;-81
2021/12/19 09:35:59;;;;;;;10.33;8.57;;;;;;;4.03;56.52;99682.34;4994278;28;20427;-81
2021/12/19 09:38:25;;;;;;;11.20;9.67;;;;;;;3.76;56.30;99607.19;4994930;28;20029;-82
2021/12/19 09:40:58;;;;;;;11.13;9.33;;;;;;;4.65;56.42;99738.75;5002097;28;20042;-81
2021/12/19 09:43:43;;;;;;;12.17;9.67;;;;;;;4.73;56.11;99736.31;5000304;28;20030;-82
2021/12/19 09:46:11;;;;;;;13.20;10.80;;;;;;;4.71;56.35;99725.16;5006925;28;20034;-81
2021/12/19 09:48:39;;;;;;;11.87;9.67;;;;;;;4.76;56.47;99729.00;5010067;28;20037;-81
2021/12/19 09:51:05;;;;;;;12.10;9.83;;;;;;;4.91;56.29;99728.59;5015204;28;20461;-82
2021/12/19 09:53:31;;;;;;;10.20;8.87;;;;;;;4.55;55.88;99651.63;5022410;28;20044;-83
2021/12/19 09:55:56;;;;;;;12.10;9.40;;;;;;;5.08;55.79;99722.69;5008424;28;20900;-81
2021/12/19 09:58:22;;;;;;;14.03;10.10;;;;;;;4.67;55.83;99651.38;5003076;28;20500;-81
2021/12/19 10:00:47;;;;;;;11.97;9.43;;;;;;;4.77;55.39;99646.13;5010451;28;20044;-81
2021/12/19 10:03:16;;;;;;;12.03;8.67;;;;;;;4.75;55.00;99653.28;5019530;28;20032;-80
2021/12/19 10:05:41;;;;;;;9.50;7.63;;;;;;;4.74;55.15;99654.25;5026405;28;20030;-81
2021/12/19 10:08:07;;;;;;;12.80;9.37;;;;;;;4.96;54.60;99655.75;5027558;28;20045;-82
2021/12/19 10:10:47;;;;;;;7.70;6.30;;;;;;;5.26;53.58;99701.88;5007314;28;20026;-82
2021/12/19 10:13:14;;;;;;;9.67;7.80;;;;;;;5.16;53.62;99677.50;5011813;28;20025;-81
2021/12/19 10:15:42;;;;;;;7.13;6.23;;;;;;;4.79;53.35;99615.44;5012382;28;20030;-81
2021/12/19 10:18:14;;;;;;;11.47;8.03;;;;;;;4.85;52.83;99601.78;5012628;28;20093;-82
2021/12/19 10:20:50;;;;;;;8.82;6.70;;;;;;;5.44;51.89;99697.59;5010672;28;20040;-81
2021/12/19 10:23:28;;;;;;;11.83;8.60;;;;;;;5.53;52.75;99688.03;5006836;28;20042;-76
2021/12/19 10:26:04;;;;;;;9.17;7.20;;;;;;;5.64;52.77;99682.63;5011662;28;20473;-77
2021/12/19 10:28:30;;;;;;;9.40;6.80;;;;;;;5.47;52.74;99644.09;5012155;28;20479;-77
2021/12/19 10:31:01;;;;;;;11.17;7.93;;;;;;;5.75;52.46;99680.66;5012354;28;20543;-77
2021/12/19 10:33:29;;;;;;;11.33;7.27;;;;;;;5.74;52.31;99668.53;5006100;28;20449;-77
2021/12/19 10:35:57;;;;;;;10.53;7.63;;;;;;;5.53;52.71;99631.25;5026607;28;20030;-77
2021/12/19 10:38:26;;;;;;;8.00;7.20;;;;;;;5.35;52.61;99591.09;5003833;28;20530;-77
2021/12/19 10:41:04;;;;;;;11.23;8.27;;;;;;;5.87;51.41;99660.34;5004830;28;20132;-78
2021/12/19 10:43:32;;;;;;;10.83;8.87;;;;;;;5.43;52.65;99583.34;5011458;28;20018;-78
2021/12/19 10:46:07;;;;;;;8.50;7.60;;;;;;;5.90;52.23;99656.63;5006876;28;20026;-76
2021/12/19 10:48:41;;;;;;;8.27;7.10;;;;;;;5.88;52.25;99648.88;5010795;28;20068;-76
2021/12/19 10:51:25;;;;;;;11.23;8.60;;;;;;;5.35;52.01;99567.53;5008869;28;20030;-76
2021/12/19 10:53:53;;;;;;;9.83;7.00;;;;;;;5.64;52.16;99604.88;4999293;28;20031;-76
2021/12/19 10:56:23;;;;;;;9.53;7.90;;;;;;;5.95;52.12;99634.28;4997250;28;20130;-77
2021/12/19 10:58:57;;;;;;;11.00;7.93;;;;;;;5.92;51.72;99634.56;5002659;28;20399;-77
2021/12/19 11:01:32;;;;;;;9.90;8.63;;;;;;;5.87;52.20;99620.22;5006329;28;20113;-77
2021/12/19 11:03:59;;;;;;;10.47;7.43;;;;;;;5.48;51.82;99543.63;5004084;28;20036;-75
2021/12/19 11:06:40;;;;;;;9.00;7.17;;;;;;;5.44;52.16;99524.75;5007339;28;20033;-76
2021/12/19 11:09:16;;;;;;;9.70;7.10;;;;;;;5.93;52.06;99609.19;5005160;28;20034;-76
2021/12/19 11:11:47;;;;;;;11.93;8.33;;;;;;;5.94;52.14;99603.78;5001358;28;20045;-77
2021/12/19 11:14:28;;;;;;;9.40;6.50;;;;;;;5.57;51.89;99540.13;5012141;28;20026;-77
2021/12/19 11:16:56;;;;;;;6.67;5.93;;;;;;;5.56;51.83;99536.69;5009088;28;20037;-77
2021/12/19 11:19:23;;;;;;;8.30;6.87;;;;;;;5.95;52.03;99592.38;5004280;28;20033;-77
2021/12/19 11:21:48;;;;;;;9.30;6.80;;;;;;;5.53;52.56;99509.97;5017636;28;20037;-78
2021/12/19 11:24:17;;;;;;;7.70;6.03;;;;;;;6.00;52.10;99577.03;5003817;28;20164;-86
2021/12/19 11:26:45;;;;;;;8.37;6.77;;;;;;;5.38;51.97;99479.03;4997741;28;20037;-86
2021/12/19 11:29:12;;;;;;;8.73;7.30;;;;;;;6.02;52.43;99572.47;5003913;28;20423;-85
2021/12/19 11:31:39;;;;;;;8.07;6.77;;;;;;;5.97;52.25;99566.00;5010360;28;20034;-83
2021/12/19 11:34:21;;;;;;;7.17;6.20;;;;;;;6.04;51.66;99565.28;4991665;28;20022;-84
2021/12/19 11:36:57;;;;;;;7.93;6.32;;;;;;;5.54;52.31;99483.63;5009453;28;20030;-85
2021/12/19 11:39:40;;;;;;;7.23;6.30;;;;;;;5.83;51.08;99535.84;5001371;28;20096;-86
2021/12/19 11:42:18;;;;;;;7.30;6.53;;;;;;;5.78;50.55;99532.84;5001681;28;20022;-83
2021/12/19 11:45:01;;;;;;;10.13;6.50;;;;;;;5.79;51.85;99505.66;5012000;28;20036;-84
2021/12/19 11:47:50;;;;;;;9.43;6.87;;;;;;;5.96;51.23;99531.13;5005764;28;20549;-85
2021/12/19 11:50:25;;;;;;;8.87;7.17;;;;;;;5.39;51.83;99427.50;4995508;28;20029;-86
2021/12/19 11:53:03;;;;;;;8.87;7.40;;;;;;;5.91;51.79;99517.59;5000344;28;20479;-86
2021/12/19 11:55:40;;;;;;;10.93;7.47;;;;;;;5.97;51.15;99509.19;5012984;28;20103;-83
2021/12/19 11:58:08;;;;;;;11.97;9.47;;;;;;;5.96;51.62;99507.53;5005546;28;20576;-84
2021/12/19 12:00:47;;;;;;;8.83;7.40;;;;;;;6.02;51.65;99499.06;5017220;28;20048;-86
2021/12/19 12:03:13;;;;;;;12.73;8.37;;;;;;;5.94;52.02;99483.25;5005270;28;20517;-84
2021/12/19 12:05:45;;;;;;;13.83;9.20;;;;;;;5.58;51.93;99429.16;5011829;28;20113;-83
2021/12/19 12:08:17;;;;;;;;;;;;;;;5.87;52.10;99497.88;4998725;28;20105;-84
2021/12/19 12:10:49;;;;;;;10.10;6.78;;;;;;;6.02;52.15;99503.50;5000462;28;20454;-85
2021/12/19 12:13:28;;;;;;;13.32;7.50;;;;;;;5.98;52.20;99478.56;4999986;28;20030;-86
2021/12/19 12:16:05;;;;;;;10.63;6.97;;;;;;;6.02;51.61;99485.16;5006892;28;20572;-88
2021/12/19 12:18:34;;;;;;;10.93;7.67;;;;;;;5.47;51.86;99396.16;5008469;28;20569;-88
2021/12/19 12:21:18;;;;;;;10.07;7.37;;;;;;;6.03;51.32;99473.69;5010663;28;20025;-87
2021/12/19 12:24:03;;;;;;;11.13;8.87;;;;;;;5.99;51.46;99467.09;5003649;28;20026;-80
2021/12/19 12:26:43;;;;;;;11.00;8.47;;;;;;;6.10;52.22;99464.25;4995151;28;20023;-80
2021/12/19 12:29:09;;;;;;;12.37;7.93;;;;;;;6.17;51.76;99456.59;4995225;28;20038;-79
2021/12/19 12:31:35;;;;;;;11.37;7.77;;;;;;;5.99;51.50;99441.72;5010227;28;20029;-80
2021/12/19 12:34:03;;;;;;;11.60;8.53;;;;;;;6.15;51.16;99454.13;5014121;28;20503;-79
2021/12/19 12:36:29;;;;;;;9.37;8.03;;;;;;;6.16;51.38;99445.28;5014078;28;20030;-79
2021/12/19 12:38:54;;;;;;;10.17;7.30;;;;;;;6.22;51.26;99446.47;5012173;28;20026;-80
2021/12/19 12:41:40;;;;;;;9.67;7.77;;;;;;;6.22;51.34;99442.06;5012703;28;20481;-80
2021/12/19 12:44:11;;;;;;;8.33;6.63;;;;;;;6.24;50.85;99445.34;5009441;28;20065;-78
2021/12/19 12:46:36;;;;;;;8.48;7.07;;;;;;;6.19;50.77;99439.75;4999801;28;20022;-78
2021/12/19 12:49:03;;;;;;;11.47;8.03;;;;;;;5.91;50.58;99380.53;5009050;28;20032;-78